Time;durP1;ratioP1;P1;durP2;ratioP2;P2;SDS_P1;SDS_P2;PMS_P1;PMS_P2;Temp;Humidity;BMP_temperature;BMP_pressure;BME280_temperature;BME280_humidity;BME280_pressure;Samples;Min_cycle;Max_cycle;Signal;HPM_P1;HPM_P2
2024/01/05 00:00:36;;;;;;;14.50;2.40;;;;;;;5.18;100.00;98776.16;6090413;23;20010;-89
2024/01/05 00:03:01;;;;;;;17.05;3.78;;;;;;;5.30;100.00;98774.59;6089879;23;20014;-89
2024/01/05 00:05:27;;;;;;;13.60;2.53;;;;;;;5.21;100.00;98775.97;6091687;23;20002;-89
2024/01/05 00:07:52;;;;;;;17.08;3.03;;;;;;;5.21;100.00;98785.38;6089665;23;20002;-89
2024/01/05 00:10:18;;;;;;;22.23;2.90;;;;;;;5.24;100.00;98774.97;6092131;23;20006;-89
2024/01/05 00:12:43;;;;;;;13.60;2.92;;;;;;;5.18;100.00;98777.91;6090444;23;20011;-89
2024/01/05 00:15:12;;;;;;;11.07;3.03;;;;;;;5.17;100.00;98778.81;6092004;23;20414;-89
2024/01/05 00:17:37;;;;;;;12.85;2.67;;;;;;;5.13;100.00;98786.69;6090401;23;20014;-90
2024/01/05 00:20:03;;;;;;;17.45;2.78;;;;;;;5.10;100.00;98783.50;6091599;23;20429;-90
2024/01/05 00:22:29;;;;;;;16.48;2.25;;;;;;;5.02;100.00;98778.84;6092051;23;19999;-89
2024/01/05 00:24:54;;;;;;;11.10;2.50;;;;;;;5.09;100.00;98787.78;6092280;23;20017;-89
2024/01/05 00:27:19;;;;;;;9.48;1.73;;;;;;;4.89;100.00;98789.00;6092072;23;20002;-90
2024/01/05 00:29:45;;;;;;;9.10;2.60;;;;;;;5.01;100.00;98787.44;6090617;23;20009;-89
2024/01/05 00:32:10;;;;;;;15.00;2.47;;;;;;;5.05;100.00;98794.00;6092124;23;20002;-89
2024/01/05 00:34:36;;;;;;;14.18;2.08;;;;;;;5.01;100.00;98800.22;6089773;23;20089;-90
2024/01/05 00:37:01;;;;;;;12.68;1.60;;;;;;;5.04;100.00;98805.13;6092489;23;20026;-90
2024/01/05 00:39:27;;;;;;;13.15;1.95;;;;;;;5.09;100.00;98795.44;6091875;23;20073;-89
2024/01/05 00:41:52;;;;;;;12.70;1.80;;;;;;;4.92;100.00;98805.88;6091940;23;20441;-90
2024/01/05 00:44:17;;;;;;;6.30;1.70;;;;;;;5.07;100.00;98799.84;6091673;23;20421;-89
2024/01/05 00:46:43;;;;;;;12.10;2.65;;;;;;;4.96;100.00;98807.34;6091982;23;20003;-89
2024/01/05 00:49:08;;;;;;;12.90;1.70;;;;;;;5.00;100.00;98801.16;6091373;23;20132;-90
2024/01/05 00:51:33;;;;;;;13.35;2.35;;;;;;;5.04;100.00;98800.03;6091966;23;20021;-89
2024/01/05 00:53:59;;;;;;;8.43;2.00;;;;;;;5.05;100.00;98801.69;6090506;23;20013;-90
2024/01/05 00:56:24;;;;;;;9.63;2.20;;;;;;;4.99;100.00;98811.47;6092080;23;19998;-90
2024/01/05 00:58:49;;;;;;;11.90;2.03;;;;;;;4.97;100.00;98811.53;6091718;23;19999;-89
2024/01/05 01:01:15;;;;;;;11.60;1.90;;;;;;;4.97;100.00;98814.09;6091953;23;20015;-91
2024/01/05 01:03:40;;;;;;;7.95;1.85;;;;;;;4.94;100.00;98815.09;6091395;23;20075;-89
2024/01/05 01:06:05;;;;;;;11.73;1.55;;;;;;;4.94;100.00;98814.28;6091729;23;20034;-90
2024/01/05 01:08:31;;;;;;;11.40;1.85;;;;;;;4.93;100.00;98815.22;6091676;23;20002;-90
2024/01/05 01:10:56;;;;;;;12.25;1.92;;;;;;;4.89;100.00;98817.13;6092103;23;20006;-89
2024/01/05 01:13:21;;;;;;;12.98;2.33;;;;;;;4.92;100.00;98822.03;6091752;23;20536;-90
2024/01/05 01:15:47;;;;;;;10.60;2.05;;;;;;;4.93;100.00;98822.88;6091718;23;20006;-89
2024/01/05 01:18:12;;;;;;;13.07;1.90;;;;;;;4.98;100.00;98825.97;6090518;23;20008;-89
2024/01/05 01:20:38;;;;;;;8.80;2.33;;;;;;;4.99;100.00;98827.59;6090177;23;20002;-90
2024/01/05 01:23:03;;;;;;;13.32;2.13;;;;;;;4.79;100.00;98836.47;6091769;23;20518;-89
2024/01/05 01:25:29;;;;;;;10.20;1.95;;;;;;;4.87;100.00;98833.47;6091748;23;20081;-90
2024/01/05 01:27:54;;;;;;;10.77;1.80;;;;;;;4.88;100.00;98841.06;6091681;23;20085;-90
2024/01/05 01:30:19;;;;;;;10.77;2.55;;;;;;;4.84;100.00;98838.75;6090130;23;20010;-89
2024/01/05 01:32:45;;;;;;;9.00;1.67;;;;;;;4.85;100.00;98840.41;6091069;23;20000;-89
2024/01/05 01:35:10;;;;;;;19.15;4.60;;;;;;;4.79;100.00;98846.69;6091515;23;20014;-90
2024/01/05 01:37:35;;;;;;;10.32;1.65;;;;;;;4.85;100.00;98845.50;6090091;23;20007;-90
2024/01/05 01:40:01;;;;;;;13.02;2.95;;;;;;;4.92;100.00;98849.34;6090281;23;20007;-89
2024/01/05 01:42:27;;;;;;;8.07;2.30;;;;;;;4.94;100.00;98850.91;6091515;23;20319;-89
2024/01/05 01:44:52;;;;;;;7.22;1.48;;;;;;;4.83;100.00;98857.56;6090145;23;20034;-89
2024/01/05 01:47:19;;;;;;;9.23;3.10;;;;;;;4.80;100.00;98860.28;6089636;23;20007;-90
2024/01/05 01:49:44;;;;;;;11.20;1.63;;;;;;;4.85;100.00;98868.50;6091388;23;20074;-89
2024/01/05 01:52:10;;;;;;;10.30;1.63;;;;;;;4.82;100.00;98866.16;6091677;23;20002;-89
2024/01/05 01:54:36;;;;;;;10.68;1.40;;;;;;;4.77;100.00;98868.16;6089859;23;20154;-90
2024/01/05 01:57:04;;;;;;;15.10;2.17;;;;;;;4.87;100.00;98869.25;6091669;23;20073;-90
2024/01/05 01:59:30;;;;;;;6.95;0.88;;;;;;;4.75;100.00;98864.88;6091414;23;20003;-89
2024/01/05 02:01:57;;;;;;;12.00;1.25;;;;;;;4.79;100.00;98866.34;6091032;23;20013;-89
2024/01/05 02:04:24;;;;;;;8.77;1.63;;;;;;;4.71;100.00;98870.16;6089656;23;20524;-90
2024/01/05 02:06:49;;;;;;;8.82;1.10;;;;;;;4.75;100.00;98875.91;6091738;23;20002;-89
2024/01/05 02:09:15;;;;;;;13.00;3.13;;;;;;;4.54;100.00;98880.53;6091546;23;20382;-89
2024/01/05 02:11:40;;;;;;;8.95;1.13;;;;;;;4.55;100.00;98882.19;6091381;23;19999;-89
2024/01/05 02:14:06;;;;;;;6.05;1.20;;;;;;;4.50;100.00;98882.44;6091310;23;20153;-89
2024/01/05 02:16:32;;;;;;;4.35;1.10;;;;;;;4.54;100.00;98882.28;6090889;23;20090;-90
2024/01/05 02:18:57;;;;;;;8.13;1.10;;;;;;;4.64;100.00;98889.31;6089595;23;20026;-89
2024/01/05 02:21:26;;;;;;;7.47;1.13;;;;;;;4.66;100.00;98897.72;6091431;23;20034;-90
2024/01/05 02:23:52;;;;;;;9.10;1.42;;;;;;;4.56;100.00;98898.31;6091464;23;20085;-90
2024/01/05 02:26:17;;;;;;;13.95;1.20;;;;;;;4.54;100.00;98900.97;6091374;23;20030;-89
2024/01/05 02:28:43;;;;;;;6.28;0.95;;;;;;;4.40;100.00;98908.59;6090881;23;20093;-89
2024/01/05 02:31:08;;;;;;;11.07;1.58;;;;;;;4.40;100.00;98901.75;6091011;23;20007;-90
2024/01/05 02:33:33;;;;;;;8.45;1.17;;;;;;;4.46;100.00;98909.09;6089669;23;20014;-89
2024/01/05 02:35:59;;;;;;;10.77;1.00;;;;;;;4.46;100.00;98906.53;6089562;23;20006;-89
2024/01/05 02:38:24;;;;;;;13.55;1.63;;;;;;;4.54;100.00;98913.75;6090714;23;20002;-89
2024/01/05 02:40:49;;;;;;;10.40;1.50;;;;;;;4.54;100.00;98912.94;6091276;23;20006;-89
2024/01/05 02:43:15;;;;;;;6.60;1.00;;;;;;;4.57;100.00;98917.88;6091359;23;20016;-89
2024/01/05 02:45:40;;;;;;;9.63;2.65;;;;;;;4.49;100.00;98905.53;6090592;23;20376;-89
2024/01/05 02:48:06;;;;;;;5.38;0.98;;;;;;;4.46;100.00;98915.91;6089224;23;20007;-89
2024/01/05 02:50:31;;;;;;;7.50;1.33;;;;;;;4.46;100.00;98918.47;6090819;23;20030;-89
2024/01/05 02:52:57;;;;;;;9.68;2.13;;;;;;;4.46;100.00;98926.13;6091089;23;20011;-89
2024/01/05 02:55:22;;;;;;;9.10;3.50;;;;;;;4.41;100.00;98921.28;6090921;23;20326;-89
2024/01/05 02:57:47;;;;;;;5.10;1.20;;;;;;;4.52;100.00;98923.22;6089331;23;20080;-89
2024/01/05 03:00:13;;;;;;;11.07;1.10;;;;;;;4.39;100.00;98922.28;6090870;23;20002;-89
2024/01/05 03:02:38;;;;;;;4.03;0.80;;;;;;;4.44;100.00;98925.41;6089402;23;19998;-88
2024/01/05 03:05:05;;;;;;;3.58;0.70;;;;;;;4.38;100.00;98935.97;6089507;23;20007;-90
2024/01/05 03:07:31;;;;;;;3.80;0.90;;;;;;;4.38;100.00;98933.41;6090228;23;20010;-89
2024/01/05 03:09:56;;;;;;;4.40;0.80;;;;;;;4.38;100.00;98938.50;6089424;23;20019;-89
2024/01/05 03:12:22;;;;;;;5.88;1.05;;;;;;;4.35;100.00;98943.81;6089690;23;20030;-89
2024/01/05 03:14:47;;;;;;;8.90;1.20;;;;;;;4.39;100.00;98941.00;6090832;23;20018;-89
2024/01/05 03:17:12;;;;;;;9.68;1.40;;;;;;;4.32;100.00;98936.28;6090323;23;20003;-89
2024/01/05 03:19:37;;;;;;;6.72;1.30;;;;;;;4.36;100.00;98942.88;6089483;23;20022;-89
2024/01/05 03:22:03;;;;;;;9.43;1.13;;;;;;;4.35;100.00;98941.25;6089036;23;20057;-89
2024/01/05 03:24:29;;;;;;;4.85;0.90;;;;;;;4.37;100.00;98952.22;6089319;23;20014;-89
2024/01/05 03:26:54;;;;;;;9.55;1.30;;;;;;;4.41;100.00;98946.81;6090683;23;20006;-89
2024/01/05 03:29:19;;;;;;;8.13;1.10;;;;;;;4.47;100.00;98943.13;6090836;23;20207;-90
2024/01/05 03:31:48;;;;;;;8.57;1.45;;;;;;;4.34;100.00;98943.00;6090401;23;20006;-89
2024/01/05 03:34:14;;;;;;;12.35;1.45;;;;;;;4.30;100.00;98946.59;6089625;23;20010;-89
2024/01/05 03:36:40;;;;;;;6.90;1.10;;;;;;;4.33;100.00;98950.72;6090916;23;20026;-89
2024/01/05 03:39:08;;;;;;;4.97;0.77;;;;;;;4.30;100.00;98946.59;6090971;23;20002;-89
2024/01/05 03:41:34;;;;;;;11.00;1.00;;;;;;;4.24;100.00;98950.34;6091938;23;20002;-89
2024/01/05 03:44:00;;;;;;;4.07;0.90;;;;;;;4.24;100.00;98941.81;6092173;23;20003;-89
2024/01/05 03:46:26;;;;;;;7.93;1.08;;;;;;;4.30;100.00;98946.59;6091326;23;20425;-89
2024/01/05 03:48:51;;;;;;;4.40;0.90;;;;;;;4.27;100.00;98942.50;6091995;23;20329;-89
2024/01/05 03:51:17;;;;;;;12.77;1.60;;;;;;;4.20;100.00;98945.47;6092167;23;20026;-89
2024/01/05 03:53:42;;;;;;;8.57;1.27;;;;;;;4.16;100.00;98949.91;6092028;23;20426;-89
2024/01/05 03:56:10;;;;;;;5.00;1.00;;;;;;;4.14;100.00;98944.06;6090467;23;20357;-89
2024/01/05 03:58:36;;;;;;;15.68;1.75;;;;;;;4.10;100.00;98942.63;6091776;23;20365;-89
2024/01/05 04:01:02;;;;;;;4.15;0.82;;;;;;;4.19;100.00;98943.81;6091880;23;20013;-89
2024/01/05 04:03:28;;;;;;;4.93;0.88;;;;;;;4.18;100.00;98945.56;6092290;23;20396;-90
2024/01/05 04:05:53;;;;;;;6.50;0.80;;;;;;;4.18;100.00;98945.56;6091699;23;20030;-89
2024/01/05 04:08:19;;;;;;;6.18;0.80;;;;;;;4.23;100.00;98946.13;6089972;23;20007;-89
2024/01/05 04:10:44;;;;;;;9.65;1.05;;;;;;;4.23;100.00;98941.00;6091902;23;20033;-89
2024/01/05 04:13:09;;;;;;;12.00;1.45;;;;;;;4.25;100.00;98946.88;6092146;23;20006;-89
2024/01/05 04:15:36;;;;;;;5.50;0.88;;;;;;;4.35;100.00;98948.91;6091319;23;20038;-89
2024/01/05 04:18:01;;;;;;;8.07;1.20;;;;;;;4.42;100.00;98953.59;6091863;23;20002;-89
2024/01/05 04:20:27;;;;;;;3.78;0.82;;;;;;;4.32;100.00;98949.91;6092018;23;20006;-89
2024/01/05 04:22:52;;;;;;;9.65;1.48;;;;;;;4.32;100.00;98949.06;6090406;23;20002;-89
2024/01/05 04:25:17;;;;;;;11.73;1.05;;;;;;;4.26;100.00;98951.06;6091594;23;20073;-90
2024/01/05 04:27:43;;;;;;;6.97;1.02;;;;;;;4.20;100.00;98945.47;6090513;23;20402;-89
2024/01/05 04:30:09;;;;;;;3.58;0.82;;;;;;;4.15;100.00;98948.28;6091764;23;20013;-89
2024/01/05 04:32:34;;;;;;;7.40;1.15;;;;;;;4.16;100.00;98960.13;6091872;23;20090;-89
2024/01/05 04:35:00;;;;;;;5.22;1.55;;;;;;;4.09;100.00;98956.25;6091893;23;20380;-89
2024/01/05 04:37:25;;;;;;;3.78;0.63;;;;;;;4.10;100.00;98957.94;6091629;23;20420;-89
2024/01/05 04:39:50;;;;;;;8.48;0.68;;;;;;;4.11;100.00;98951.91;6089968;23;20400;-89
2024/01/05 04:42:16;;;;;;;11.90;1.15;;;;;;;4.23;100.00;98951.22;6091684;23;20113;-89
2024/01/05 04:44:41;;;;;;;8.38;1.20;;;;;;;4.10;100.00;98951.97;6091598;23;20006;-89
2024/01/05 04:47:06;;;;;;;5.90;1.08;;;;;;;4.16;100.00;98960.13;6091758;23;20078;-89
2024/01/05 04:49:33;;;;;;;2.45;0.80;;;;;;;4.16;100.00;98965.25;6092067;23;20057;-89
2024/01/05 04:52:00;;;;;;;5.50;0.90;;;;;;;4.14;100.00;98959.38;6090178;23;20006;-89
2024/01/05 04:54:25;;;;;;;6.90;1.20;;;;;;;4.16;100.00;98952.47;6090211;23;20014;-88
2024/01/05 04:56:50;;;;;;;8.63;1.00;;;;;;;4.10;100.00;98955.38;6090573;23;20468;-89
2024/01/05 04:59:16;;;;;;;9.02;2.00;;;;;;;4.10;100.00;98957.09;6091192;23;20002;-89
2024/01/05 05:01:42;;;;;;;3.75;0.70;;;;;;;4.11;100.00;98957.00;6091919;23;20006;-89
2024/01/05 05:04:07;;;;;;;3.33;0.70;;;;;;;4.12;100.00;98962.94;6092016;23;20006;-90
2024/01/05 05:06:32;;;;;;;9.52;1.27;;;;;;;4.11;100.00;98967.22;6091563;23;20006;-89
2024/01/05 05:08:58;;;;;;;4.82;0.93;;;;;;;4.10;100.00;98970.69;6091797;23;20419;-90
2024/01/05 05:11:23;;;;;;;5.35;0.90;;;;;;;4.09;100.00;98966.47;6092195;23;20053;-90
2024/01/05 05:13:48;;;;;;;7.78;1.38;;;;;;;4.04;100.00;98966.72;6091182;23;20006;-89
2024/01/05 05:16:14;;;;;;;3.42;0.75;;;;;;;4.10;100.00;98973.25;6090962;23;20017;-89
2024/01/05 05:18:39;;;;;;;4.55;1.23;;;;;;;4.05;100.00;98970.13;6091764;23;20428;-89
2024/01/05 05:21:05;;;;;;;9.95;1.33;;;;;;;4.03;100.00;98974.47;6091695;23;20480;-89
2024/01/05 05:23:30;;;;;;;4.00;0.60;;;;;;;3.96;100.00;98988.47;6091716;23;20033;-89
2024/01/05 05:25:57;;;;;;;4.47;0.88;;;;;;;3.73;100.00;98979.47;6091426;23;19998;-89
2024/01/05 05:28:22;;;;;;;4.80;0.80;;;;;;;3.79;100.00;98977.44;6091690;23;20003;-89
2024/01/05 05:30:48;;;;;;;5.13;0.73;;;;;;;3.78;100.00;98986.00;6091136;23;19998;-89
2024/01/05 05:33:14;;;;;;;5.05;1.10;;;;;;;3.75;100.00;98980.22;6091908;23;20010;-89
2024/01/05 05:35:39;;;;;;;5.50;0.82;;;;;;;3.82;100.00;98986.66;6090141;23;20007;-89
2024/01/05 05:38:06;;;;;;;5.20;0.85;;;;;;;3.76;100.00;98990.38;6091921;23;20009;-89
2024/01/05 05:40:32;;;;;;;3.90;0.75;;;;;;;3.76;100.00;98992.09;6091093;23;20037;-89
2024/01/05 05:42:57;;;;;;;3.97;1.00;;;;;;;3.64;100.00;98993.56;6091644;23;20341;-89
2024/01/05 05:45:23;;;;;;;7.75;1.00;;;;;;;3.63;100.00;99002.09;6090040;23;19998;-89
2024/01/05 05:47:48;;;;;;;11.05;1.25;;;;;;;3.69;100.00;99001.78;6091543;23;20006;-89
2024/01/05 05:50:14;;;;;;;3.65;1.00;;;;;;;3.68;100.00;98994.22;6090706;23;20343;-89
2024/01/05 05:52:40;;;;;;;2.20;0.47;;;;;;;3.64;100.00;99001.22;6091463;23;20007;-89
2024/01/05 05:55:06;;;;;;;4.45;0.90;;;;;;;3.65;100.00;98998.56;6091661;23;20013;-89
2024/01/05 05:57:32;;;;;;;2.90;0.85;;;;;;;3.57;100.00;99007.53;6091436;23;20002;-89
2024/01/05 05:59:57;;;;;;;4.93;0.90;;;;;;;3.27;100.00;99009.91;6091603;23;20077;-89
2024/01/05 06:02:22;;;;;;;5.15;0.90;;;;;;;3.25;100.00;99017.66;6091220;23;20002;-89
2024/01/05 06:04:48;;;;;;;9.00;1.30;;;;;;;2.91;100.00;99021.03;6091500;23;19998;-89
2024/01/05 06:07:13;;;;;;;5.78;0.93;;;;;;;3.02;100.00;99028.97;6090780;23;20002;-89
2024/01/05 06:09:39;;;;;;;14.63;3.65;;;;;;;3.10;100.00;99019.25;6091742;23;20010;-89
2024/01/05 06:12:04;;;;;;;11.43;1.73;;;;;;;3.00;100.00;99023.16;6089847;23;20010;-89
2024/01/05 06:14:30;;;;;;;5.90;1.15;;;;;;;3.00;100.00;99033.34;6091469;23;20011;-90
2024/01/05 06:16:56;;;;;;;5.70;1.00;;;;;;;3.06;100.00;99037.31;6091456;23;20327;-89
2024/01/05 06:19:22;;;;;;;6.43;0.70;;;;;;;2.97;100.00;99039.38;6091578;23;20030;-89
2024/01/05 06:21:47;;;;;;;5.10;0.77;;;;;;;2.99;100.00;99032.50;6091519;23;20006;-89
2024/01/05 06:24:13;;;;;;;7.43;1.10;;;;;;;2.76;100.00;99043.00;6091369;23;20448;-89
2024/01/05 06:26:38;;;;;;;2.65;0.50;;;;;;;2.63;100.00;99047.81;6091242;23;20444;-89
2024/01/05 06:29:03;;;;;;;6.57;1.08;;;;;;;2.65;100.00;99042.66;6091126;23;20330;-89
2024/01/05 06:31:29;;;;;;;3.92;1.10;;;;;;;2.75;100.00;99054.88;6091450;23;20006;-89
2024/01/05 06:33:54;;;;;;;9.95;1.20;;;;;;;2.64;100.00;99059.69;6091273;23;20038;-89
2024/01/05 06:36:22;;;;;;;3.50;0.80;;;;;;;2.72;100.00;99059.31;6090587;23;20089;-89
2024/01/05 06:38:47;;;;;;;5.72;0.95;;;;;;;2.76;100.00;99066.75;6089026;23;20093;-89
2024/01/05 06:41:12;;;;;;;7.63;0.68;;;;;;;2.86;100.00;99064.59;6089359;23;20084;-89
2024/01/05 06:43:38;;;;;;;5.78;0.90;;;;;;;2.86;100.00;99056.94;6089857;23;20011;-89
2024/01/05 06:46:03;;;;;;;6.95;1.15;;;;;;;2.93;100.00;99058.28;6091271;23;20014;-89
2024/01/05 06:48:28;;;;;;;4.75;1.00;;;;;;;2.95;100.00;99065.84;6090918;23;20005;-89
2024/01/05 06:50:54;;;;;;;3.13;0.80;;;;;;;2.91;100.00;99060.09;6091370;23;20007;-89
2024/01/05 06:53:19;;;;;;;6.60;0.90;;;;;;;2.93;100.00;99067.66;6090976;23;20082;-89
2024/01/05 06:55:45;;;;;;;6.38;1.17;;;;;;;2.98;100.00;99066.53;6091279;23;20329;-89
2024/01/05 06:58:10;;;;;;;7.32;1.10;;;;;;;3.00;100.00;99063.94;6090992;23;20008;-89
2024/01/05 07:00:37;;;;;;;5.30;1.00;;;;;;;3.05;100.00;99077.28;6091425;23;20379;-89
2024/01/05 07:03:03;;;;;;;10.45;1.15;;;;;;;3.09;100.00;99083.03;6091823;23;20006;-90
2024/01/05 07:05:28;;;;;;;2.88;1.00;;;;;;;3.04;100.00;99084.97;6090823;23;20132;-89
2024/01/05 07:07:54;;;;;;;6.20;0.80;;;;;;;3.13;100.00;99087.91;6089218;23;20081;-89
2024/01/05 07:10:19;;;;;;;5.47;1.17;;;;;;;3.14;100.00;99087.00;6090064;23;20009;-89
2024/01/05 07:12:44;;;;;;;10.55;1.23;;;;;;;3.12;100.00;99088.81;6091370;23;20030;-89
2024/01/05 07:15:10;;;;;;;1.15;0.52;;;;;;;3.06;100.00;99093.38;6091104;23;20037;-89
2024/01/05 07:17:35;;;;;;;7.68;1.02;;;;;;;3.05;100.00;99101.91;6090606;23;20085;-89
2024/01/05 07:20:00;;;;;;;6.15;1.13;;;;;;;3.21;100.00;99107.94;6092198;23;20010;-89
2024/01/05 07:22:26;;;;;;;4.28;0.90;;;;;;;3.12;100.00;99114.31;6092538;23;20471;-89
2024/01/05 07:24:51;;;;;;;5.93;1.00;;;;;;;3.06;100.00;99118.88;6089632;23;20119;-90
2024/01/05 07:27:17;;;;;;;4.70;1.13;;;;;;;3.04;100.00;99121.47;6090209;23;20433;-90
2024/01/05 07:29:42;;;;;;;13.52;1.92;;;;;;;3.09;100.00;99128.91;6090853;23;20445;-89
2024/01/05 07:32:08;;;;;;;5.57;1.00;;;;;;;3.05;100.00;99125.69;6092285;23;20030;-90
2024/01/05 07:34:33;;;;;;;8.25;1.23;;;;;;;3.04;100.00;99128.31;6091866;23;20211;-90
2024/01/05 07:36:58;;;;;;;3.17;1.10;;;;;;;2.98;100.00;99126.88;6090423;23;20433;-89
2024/01/05 07:39:24;;;;;;;13.02;3.28;;;;;;;2.98;100.00;99126.88;6090443;23;20348;-90
2024/01/05 07:41:50;;;;;;;5.15;0.80;;;;;;;3.10;100.00;99144.16;6092169;23;20007;-90
2024/01/05 07:44:15;;;;;;;7.55;1.08;;;;;;;3.09;100.00;99139.13;6090588;23;20006;-89
2024/01/05 07:46:41;;;;;;;12.65;1.17;;;;;;;3.10;100.00;99145.88;6091948;23;20003;-89
2024/01/05 07:49:07;;;;;;;7.38;1.23;;;;;;;3.13;100.00;99153.38;6092220;23;20078;-89
2024/01/05 07:51:32;;;;;;;6.40;1.30;;;;;;;3.11;100.00;99150.06;6090455;23;20030;-89
2024/01/05 07:53:58;;;;;;;4.90;1.33;;;;;;;3.02;100.00;99151.31;6091784;23;20007;-89
2024/01/05 07:56:23;;;;;;;7.82;1.27;;;;;;;3.02;100.00;99153.88;6091557;23;20003;-89
2024/01/05 07:58:49;;;;;;;4.53;0.93;;;;;;;3.09;100.00;99159.50;6092084;23;20051;-89
2024/01/05 08:01:19;;;;;;;4.40;1.02;;;;;;;3.11;100.00;99162.81;6091946;23;20045;-89
2024/01/05 08:03:44;;;;;;;3.03;0.90;;;;;;;3.07;100.00;99167.22;6090724;23;20010;-89
2024/01/05 08:06:19;;;;;;;6.32;1.15;;;;;;;3.10;100.00;99169.63;6091947;23;20002;-89
2024/01/05 08:08:46;;;;;;;4.88;1.17;;;;;;;2.97;100.00;99173.66;6090351;23;20425;-87
2024/01/05 08:11:12;;;;;;;5.13;1.45;;;;;;;2.98;100.00;99172.75;6090239;23;20010;-88
2024/01/05 08:13:39;;;;;;;12.25;1.63;;;;;;;2.91;100.00;99174.75;6090633;23;20009;-89
2024/01/05 08:16:06;;;;;;;4.80;1.10;;;;;;;2.96;100.00;99190.66;6089207;23;20018;-88
2024/01/05 08:18:31;;;;;;;5.65;1.27;;;;;;;2.94;100.00;99192.47;6091435;23;20003;-87
2024/01/05 08:20:57;;;;;;;3.42;1.08;;;;;;;2.94;100.00;99191.63;6092017;23;20082;-87
2024/01/05 08:23:22;;;;;;;4.97;1.17;;;;;;;2.95;100.00;99198.38;6091861;23;20003;-87
2024/01/05 08:25:48;;;;;;;8.32;1.20;;;;;;;3.04;100.00;99199.69;6091374;23;20009;-86
2024/01/05 08:28:13;;;;;;;3.80;1.70;;;;;;;2.96;100.00;99203.41;6091047;23;20090;-87
2024/01/05 08:30:39;;;;;;;6.55;1.30;;;;;;;3.01;100.00;99200.66;6091433;23;20007;-86
2024/01/05 08:33:05;;;;;;;9.68;1.10;;;;;;;2.95;100.00;99209.41;6090449;23;20003;-85
2024/01/05 08:35:30;;;;;;;6.47;1.38;;;;;;;3.03;100.00;99205.69;6091421;23;20053;-87
2024/01/05 08:37:56;;;;;;;5.28;1.40;;;;;;;3.00;100.00;99204.13;6091819;23;20037;-87
2024/01/05 08:40:25;;;;;;;7.93;2.28;;;;;;;2.95;100.00;99217.06;6091907;23;20041;-87
2024/01/05 08:42:51;;;;;;;6.13;1.30;;;;;;;2.91;100.00;99218.09;6089744;23;20029;-87
2024/01/05 08:45:19;;;;;;;3.90;1.13;;;;;;;3.00;100.00;99225.31;6090420;23;20449;-88
2024/01/05 08:47:45;;;;;;;7.93;1.60;;;;;;;3.09;100.00;99223.22;6090331;23;20022;-88
2024/01/05 08:50:10;;;;;;;7.75;1.33;;;;;;;3.17;100.00;99223.69;6091003;23;20003;-88
2024/01/05 08:52:35;;;;;;;6.57;1.52;;;;;;;3.21;100.00;99236.22;6091674;23;20513;-87
2024/01/05 08:55:01;;;;;;;3.42;1.52;;;;;;;3.27;100.00;99229.19;6091515;23;20011;-87
2024/01/05 08:57:26;;;;;;;7.95;1.15;;;;;;;3.37;100.00;99228.72;6091433;23;20007;-88
2024/01/05 08:59:52;;;;;;;7.47;1.50;;;;;;;3.39;100.00;99229.47;6089527;23;20069;-87
2024/01/05 09:02:17;;;;;;;15.07;1.80;;;;;;;3.34;100.00;99226.31;6091539;23;20003;-86
2024/01/05 09:04:43;;;;;;;6.15;0.98;;;;;;;3.40;100.00;99228.56;6090970;23;20009;-87
2024/01/05 09:07:08;;;;;;;6.55;2.13;;;;;;;3.51;100.00;99240.81;6091468;23;20003;-87
2024/01/05 09:09:33;;;;;;;4.97;1.40;;;;;;;3.55;100.00;99244.84;6091599;23;20034;-87
2024/01/05 09:12:02;;;;;;;4.05;1.30;;;;;;;3.50;100.00;99248.53;6091744;23;20082;-86
2024/01/05 09:14:27;;;;;;;3.60;1.23;;;;;;;3.58;100.00;99249.78;6090653;23;20153;-88
2024/01/05 09:16:53;;;;;;;12.45;1.55;;;;;;;3.57;100.00;99248.16;6091328;23;20256;-87
2024/01/05 09:19:18;;;;;;;6.60;1.83;;;;;;;3.65;100.00;99250.34;6090564;23;20043;-91
2024/01/05 09:21:44;;;;;;;5.70;1.75;;;;;;;3.80;100.00;99264.94;6091247;23;20010;-88
2024/01/05 09:24:09;;;;;;;4.40;1.50;;;;;;;3.74;100.00;99252.44;6091405;23;21143;-90
2024/01/05 09:26:35;;;;;;;6.65;1.30;;;;;;;3.72;100.00;99261.91;6090140;23;20082;-89
2024/01/05 09:29:00;;;;;;;5.53;1.13;;;;;;;3.74;100.00;99262.66;6088122;23;20319;-90
2024/01/05 09:31:27;;;;;;;2.55;1.02;;;;;;;3.70;100.00;99261.16;6090944;23;20010;-88
2024/01/05 09:33:54;;;;;;;4.28;1.40;;;;;;;3.78;100.00;99271.84;6090993;23;20011;-89
2024/01/05 09:36:19;;;;;;;6.97;1.40;;;;;;;3.82;100.00;99278.41;6089968;23;20015;-90
2024/01/05 09:38:45;;;;;;;5.00;1.33;;;;;;;3.79;100.00;99280.31;6091018;23;20059;-90
2024/01/05 09:41:13;;;;;;;7.38;2.95;;;;;;;3.88;100.00;99286.69;6091503;23;20002;-89
2024/01/05 09:43:40;;;;;;;5.50;1.67;;;;;;;3.97;100.00;99283.69;6090693;23;20085;-90
2024/01/05 09:46:07;;;;;;;5.30;1.67;;;;;;;4.03;100.00;99291.06;6091546;23;20009;-91
2024/01/05 09:48:33;;;;;;;8.82;1.73;;;;;;;4.11;100.00;99306.00;6089258;23;20010;-91
2024/01/05 09:50:59;;;;;;;2.42;1.70;;;;;;;4.11;100.00;99303.44;6089821;23;20090;-89
2024/01/05 09:53:25;;;;;;;7.95;2.03;;;;;;;4.16;100.00;99304.88;6088965;23;20092;-91
2024/01/05 09:55:50;;;;;;;6.25;2.00;;;;;;;4.25;100.00;99304.41;6090662;23;20006;-91
2024/01/05 09:58:17;;;;;;;6.32;2.08;;;;;;;4.36;100.00;99305.59;6090408;23;20068;-91
2024/01/05 10:00:50;;;;;;;4.78;1.80;;;;;;;4.57;100.00;99312.19;6090934;23;20007;-90
2024/01/05 10:03:23;;;;;;;6.70;1.65;;;;;;;4.82;100.00;99314.31;6091485;23;20433;-90
2024/01/05 10:05:53;;;;;;;4.40;2.17;;;;;;;5.09;100.00;99322.25;6090062;23;20006;-91
2024/01/05 10:08:19;;;;;;;6.97;2.35;;;;;;;6.21;100.00;99325.56;6091554;23;20030;-90
2024/01/05 10:10:52;;;;;;;8.13;4.10;;;;;;;7.37;100.00;99327.25;6089676;23;20014;-90
2024/01/05 10:13:18;;;;;;;6.50;2.30;;;;;;;7.91;100.00;99327.25;6090459;23;20241;-90
2024/01/05 10:16:00;;;;;;;7.30;1.85;;;;;;;7.78;100.00;99331.50;6090947;23;20157;-90
2024/01/05 10:18:29;;;;;;;6.00;3.45;;;;;;;8.24;100.00;99339.66;6089369;23;20077;-91
2024/01/05 10:20:57;;;;;;;6.60;1.85;;;;;;;8.54;100.00;99346.31;6089315;23;20002;-90
2024/01/05 10:23:23;;;;;;;5.05;2.50;;;;;;;9.88;100.00;99342.22;6090981;23;20006;-89
2024/01/05 10:25:51;;;;;;;15.32;4.60;;;;;;;10.21;100.00;99347.47;6092583;23;20034;-90
2024/01/05 10:28:29;;;;;;;6.38;1.55;;;;;;;9.34;100.00;99346.84;6090145;23;20009;-95
2024/01/05 10:31:11;;;;;;;6.88;2.05;;;;;;;7.89;100.00;99352.22;6090971;23;20006;-89
2024/01/05 10:33:53;;;;;;;8.15;1.83;;;;;;;7.12;100.00;99354.41;6090593;23;20307;-93
2024/01/05 10:36:26;;;;;;;4.13;1.50;;;;;;;7.05;100.00;99363.41;6091038;23;20006;-93
2024/01/05 10:38:51;;;;;;;5.40;1.80;;;;;;;8.01;100.00;99353.19;6090946;23;20006;-93
2024/01/05 10:41:21;;;;;;;3.53;1.70;;;;;;;8.32;100.00;99359.72;6088512;23;20064;-89
2024/01/05 10:43:47;;;;;;;5.53;1.55;;;;;;;7.79;100.00;99357.09;6090271;23;20441;-87
2024/01/05 10:46:15;;;;;;;12.73;1.80;;;;;;;7.89;100.00;99347.06;6090666;23;20529;-88
2024/01/05 10:48:41;;;;;;;6.13;1.67;;;;;;;8.18;100.00;99346.94;6090229;23;20057;-89
2024/01/05 10:51:07;;;;;;;3.10;1.83;;;;;;;9.31;100.00;99353.94;6092067;23;20006;-88
2024/01/05 10:53:34;;;;;;;3.17;1.50;;;;;;;10.86;100.00;99358.22;6091633;23;20009;-86
2024/01/05 10:56:01;;;;;;;7.78;1.50;;;;;;;10.00;100.00;99360.19;6091524;23;20007;-89
2024/01/05 10:58:26;;;;;;;5.95;1.65;;;;;;;8.63;100.00;99360.28;6090688;23;20070;-88
2024/01/05 11:00:55;;;;;;;4.75;1.30;;;;;;;7.96;100.00;99356.03;6091459;23;20512;-88
2024/01/05 11:03:22;;;;;;;11.05;1.92;;;;;;;9.85;100.00;99356.97;6091852;23;20025;-88
2024/01/05 11:05:47;;;;;;;7.78;1.77;;;;;;;11.69;100.00;99364.69;6090127;23;20083;-90
2024/01/05 11:08:25;;;;;;;4.25;1.83;;;;;;;11.49;96.19;99367.09;6092135;23;19999;-91
2024/01/05 11:10:57;;;;;;;6.88;2.00;;;;;;;9.25;100.00;99357.78;6092060;23;20002;-93
2024/01/05 11:13:51;;;;;;;4.75;1.73;;;;;;;9.59;100.00;99365.72;6089843;23;20013;-91
2024/01/05 11:16:34;;;;;;;3.65;1.88;;;;;;;8.92;100.00;99366.06;6090041;23;20446;-90
2024/01/05 11:19:21;;;;;;;5.03;1.58;;;;;;;8.26;100.00;99362.69;6090721;23;20042;-91
2024/01/05 11:22:10;;;;;;;5.28;1.75;;;;;;;8.12;100.00;99364.41;6090247;23;20014;-91
2024/01/05 11:24:37;;;;;;;6.97;2.17;;;;;;;8.64;100.00;99361.97;6091607;23;20011;-90
2024/01/05 11:27:29;;;;;;;10.80;2.25;;;;;;;8.85;100.00;99364.81;6092571;23;20447;-91